createdAt,value
2022-10-17T00:00:34.103Z,14.20
2022-10-17T00:03:00.814Z,15.38
2022-10-17T00:05:27.497Z,17.35
2022-10-17T00:07:54.868Z,11.85
2022-10-17T00:10:22.064Z,12.55
2022-10-17T00:12:55.812Z,11.82
2022-10-17T00:15:23.535Z,10.50
2022-10-17T00:17:50.189Z,12.43
2022-10-17T00:20:17.165Z,13.15
2022-10-17T00:22:43.928Z,11.57
2022-10-17T00:25:10.897Z,17.92
2022-10-17T00:27:39.159Z,11.52
2022-10-17T00:30:07.563Z,11.00
2022-10-17T00:32:34.169Z,12.18
2022-10-17T00:35:00.792Z,9.32
2022-10-17T00:37:27.616Z,11.75
2022-10-17T00:39:54.493Z,10.38
2022-10-17T00:42:21.108Z,14.93
2022-10-17T00:44:50.694Z,10.80
2022-10-17T00:47:20.279Z,10.95
2022-10-17T00:49:47.521Z,13.20
2022-10-17T00:52:20.623Z,10.30
2022-10-17T00:54:50.920Z,11.65
2022-10-17T00:57:17.823Z,17.38
2022-10-17T00:59:47.563Z,10.02
2022-10-17T01:02:17.709Z,13.25
2022-10-17T01:04:46.927Z,13.48
2022-10-17T01:07:13.741Z,11.75
2022-10-17T01:09:41.346Z,12.32
2022-10-17T01:12:21.201Z,13.68
2022-10-17T01:14:50.773Z,11.93
2022-10-17T01:17:38.355Z,10.65
2022-10-17T01:20:14.965Z,11.40
2022-10-17T01:22:52.455Z,10.05
2022-10-17T01:25:46.814Z,11.07
2022-10-17T01:28:32.374Z,11.43
2022-10-17T01:31:15.953Z,13.65
2022-10-17T01:34:15.253Z,11.88
2022-10-17T01:36:54.761Z,12.43
2022-10-17T01:39:32.500Z,12.10
2022-10-17T01:42:06.325Z,11.73
2022-10-17T01:44:39.356Z,10.90
2022-10-17T01:47:17.024Z,12.07
2022-10-17T01:49:45.528Z,15.02
2022-10-17T01:52:15.813Z,17.75
2022-10-17T01:54:55.904Z,11.90
2022-10-17T01:57:31.436Z,8.80
2022-10-17T01:59:58.352Z,12.45
2022-10-17T02:02:26.014Z,14.68
2022-10-17T02:04:53.506Z,13.98
2022-10-17T02:07:20.217Z,10.82
2022-10-17T02:09:47.097Z,12.23
2022-10-17T02:12:31.971Z,8.55
2022-10-17T02:15:06.611Z,12.32
2022-10-17T02:17:48.362Z,16.13
2022-10-17T02:20:25.071Z,15.02
2022-10-17T02:22:56.635Z,11.20
2022-10-17T02:25:59.054Z,11.27
2022-10-17T02:28:43.014Z,17.00
2022-10-17T02:31:15.646Z,10.80
2022-10-17T02:33:58.597Z,11.93
2022-10-17T02:36:52.474Z,10.40
2022-10-17T02:39:21.120Z,10.77
2022-10-17T02:41:48.444Z,11.70
2022-10-17T02:44:15.972Z,11.90
2022-10-17T02:46:45.428Z,13.65
2022-10-17T02:49:12.019Z,14.98
2022-10-17T02:51:45.979Z,11.27
2022-10-17T02:54:21.552Z,12.98
2022-10-17T02:56:59.811Z,12.52
2022-10-17T02:59:30.297Z,11.13
2022-10-17T03:01:57.090Z,15.85
2022-10-17T03:04:24.587Z,12.18
2022-10-17T03:06:51.192Z,12.30
2022-10-17T03:09:18.317Z,13.10
2022-10-17T03:11:44.918Z,11.77
2022-10-17T03:14:11.562Z,11.73
2022-10-17T03:16:38.197Z,12.05
2022-10-17T03:19:05.185Z,12.35
2022-10-17T03:21:32.879Z,11.75
2022-10-17T03:23:59.805Z,12.68
2022-10-17T03:26:27.080Z,12.23
2022-10-17T03:28:54.612Z,12.95
2022-10-17T03:31:22.987Z,13.50
2022-10-17T03:33:50.879Z,13.60
2022-10-17T03:36:19.479Z,17.23
2022-10-17T03:38:48.078Z,13.02
2022-10-17T03:41:16.593Z,12.55
2022-10-17T03:43:43.499Z,15.15
2022-10-17T03:46:10.262Z,13.15
2022-10-17T03:48:37.799Z,12.80
2022-10-17T03:51:09.743Z,14.43
2022-10-17T03:53:58.290Z,11.68
2022-10-17T03:56:25.554Z,17.88
2022-10-17T03:59:13.040Z,16.73
2022-10-17T04:01:40.144Z,13.00
2022-10-17T04:04:07.328Z,18.00
2022-10-17T04:06:36.169Z,13.55
2022-10-17T04:09:03.587Z,18.23
2022-10-17T04:11:57.212Z,14.20
2022-10-17T04:14:24.265Z,14.50
2022-10-17T04:16:51.369Z,14.15
2022-10-17T04:19:20.605Z,14.07
2022-10-17T04:21:47.840Z,16.52
2022-10-17T04:24:15.342Z,15.95
2022-10-17T04:26:50.583Z,12.25
2022-10-17T04:29:18.764Z,12.65
2022-10-17T04:31:49.771Z,16.92
2022-10-17T04:34:24.312Z,17.20
2022-10-17T04:36:51.939Z,12.75
2022-10-17T04:39:19.171Z,12.02
2022-10-17T04:41:46.446Z,12.82
2022-10-17T04:44:13.186Z,16.23
2022-10-17T04:46:44.493Z,13.13
2022-10-17T04:49:11.115Z,16.23
2022-10-17T04:51:42.988Z,14.45
2022-10-17T04:54:18.407Z,15.68
2022-10-17T04:56:48.707Z,14.50
2022-10-17T04:59:17.826Z,13.20
2022-10-17T05:01:46.235Z,15.38
2022-10-17T05:04:13.592Z,16.88
2022-10-17T05:06:40.183Z,17.10
2022-10-17T05:09:37.695Z,16.00
2022-10-17T05:12:13.823Z,18.73
2022-10-17T05:14:44.261Z,13.75
2022-10-17T05:17:11.035Z,13.15
2022-10-17T05:19:38.634Z,13.82
2022-10-17T05:22:07.001Z,16.50
2022-10-17T05:24:35.753Z,14.63
2022-10-17T05:27:03.191Z,14.82
2022-10-17T05:29:30.399Z,14.70
2022-10-17T05:32:05.986Z,13.68
2022-10-17T05:34:34.938Z,13.95
2022-10-17T05:37:01.723Z,14.05
2022-10-17T05:39:28.416Z,18.88
2022-10-17T05:41:56.540Z,14.40
2022-10-17T05:44:23.427Z,13.55
2022-10-17T05:46:54.684Z,15.43
2022-10-17T05:49:32.659Z,17.95
2022-10-17T05:52:09.275Z,13.52
2022-10-17T05:54:50.353Z,13.32
2022-10-17T05:57:17.013Z,15.68
2022-10-17T05:59:44.030Z,19.05
2022-10-17T06:02:13.670Z,21.58
2022-10-17T06:04:45.399Z,15.27
2022-10-17T06:07:13.294Z,14.93
2022-10-17T06:09:40.704Z,18.50
2022-10-17T06:12:08.407Z,19.83
2022-10-17T06:14:35.432Z,24.30
2022-10-17T06:17:03.561Z,21.50
2022-10-17T06:19:30.240Z,13.82
2022-10-17T06:21:57.515Z,16.60
2022-10-17T06:24:27.967Z,14.98
2022-10-17T06:26:56.034Z,14.07
2022-10-17T06:29:22.753Z,34.25
2022-10-17T06:31:52.215Z,15.85
2022-10-17T06:34:21.459Z,12.68
2022-10-17T06:36:48.711Z,13.23
2022-10-17T06:39:17.645Z,17.05
2022-10-17T06:41:57.894Z,12.63
2022-10-17T06:44:40.028Z,14.32
2022-10-17T06:47:20.021Z,12.40
2022-10-17T06:49:47.924Z,15.38
2022-10-17T06:52:37.647Z,13.38
2022-10-17T06:55:23.404Z,23.60
2022-10-17T06:58:11.591Z,13.43
2022-10-17T07:01:13.152Z,15.65
2022-10-17T07:03:41.063Z,16.05
2022-10-17T07:06:08.113Z,16.85
2022-10-17T07:08:34.797Z,15.88
2022-10-17T07:11:10.837Z,15.20
2022-10-17T07:13:39.285Z,13.25
2022-10-17T07:16:07.956Z,12.65
2022-10-17T07:18:35.574Z,10.50
2022-10-17T07:21:04.396Z,15.43
2022-10-17T07:23:33.800Z,15.70
2022-10-17T07:26:09.519Z,15.10
2022-10-17T07:28:41.256Z,10.95
2022-10-17T07:31:27.894Z,14.38
2022-10-17T07:33:54.514Z,11.45
2022-10-17T07:36:24.729Z,12.90
2022-10-17T07:38:55.300Z,11.90
2022-10-17T07:41:22.169Z,14.98
2022-10-17T07:43:52.315Z,9.25
2022-10-17T07:46:23.489Z,11.25
2022-10-17T07:48:50.224Z,9.38
2022-10-17T07:51:20.129Z,7.47
2022-10-17T07:53:48.821Z,9.50
2022-10-17T07:56:15.826Z,12.68
2022-10-17T07:58:45.517Z,11.68
2022-10-17T08:01:15.516Z,10.55
2022-10-17T08:03:48.552Z,6.95
2022-10-17T08:06:15.662Z,6.20
2022-10-17T08:08:42.610Z,12.65
2022-10-17T08:11:12.609Z,7.53
2022-10-17T08:13:40.287Z,6.28
2022-10-17T08:16:10.407Z,9.48
2022-10-17T08:18:38.737Z,7.00
2022-10-17T08:21:06.337Z,7.22
2022-10-17T08:23:33.025Z,11.82
2022-10-17T08:26:01.692Z,6.93
2022-10-17T08:28:28.505Z,11.63
2022-10-17T08:31:05.923Z,6.57
2022-10-17T08:33:33.379Z,4.57
2022-10-17T08:36:01.113Z,7.97
2022-10-17T08:38:35.068Z,4.55
2022-10-17T08:41:06.981Z,9.10
2022-10-17T08:43:55.345Z,6.40
2022-10-17T08:46:22.347Z,6.55
2022-10-17T08:48:50.521Z,6.22
2022-10-17T08:51:23.356Z,4.78
2022-10-17T08:53:53.400Z,7.22
2022-10-17T08:56:44.013Z,10.15
2022-10-17T08:59:30.818Z,6.65
2022-10-17T09:02:12.094Z,6.32
2022-10-17T09:05:08.008Z,6.22
2022-10-17T09:07:47.174Z,6.65
2022-10-17T09:10:17.778Z,6.55
2022-10-17T09:12:54.367Z,6.90
2022-10-17T09:15:39.255Z,7.22
2022-10-17T09:18:25.467Z,6.00
2022-10-17T09:20:55.231Z,4.38
2022-10-17T09:23:24.834Z,7.43
2022-10-17T09:25:59.488Z,8.50
2022-10-17T09:28:31.743Z,9.50
2022-10-17T09:31:04.497Z,8.70
2022-10-17T09:33:53.956Z,8.57
2022-10-17T09:36:30.139Z,7.63
2022-10-17T09:38:59.738Z,7.63
2022-10-17T09:41:44.748Z,8.05
2022-10-17T09:44:17.856Z,7.38
2022-10-17T09:46:59.863Z,7.72
2022-10-17T09:49:32.816Z,5.35
2022-10-17T09:52:01.197Z,6.13
2022-10-17T09:54:36.567Z,7.63
2022-10-17T09:57:06.016Z,4.55
2022-10-17T09:59:38.529Z,4.57
2022-10-17T10:02:21.160Z,6.55
2022-10-17T10:05:04.218Z,7.47
2022-10-17T10:07:35.282Z,6.05
2022-10-17T10:10:03.503Z,8.68
2022-10-17T10:12:38.685Z,7.63
2022-10-17T10:15:38.706Z,4.95
2022-10-17T10:18:25.266Z,5.60
2022-10-17T10:21:10.188Z,12.05
2022-10-17T10:23:40.073Z,8.88
2022-10-17T10:26:22.926Z,4.28
2022-10-17T10:29:01.795Z,6.50
2022-10-17T10:31:37.475Z,4.43
2022-10-17T10:34:28.843Z,4.85
2022-10-17T10:36:57.761Z,7.38
2022-10-17T10:39:35.270Z,8.15
2022-10-17T10:42:03.665Z,5.10
2022-10-17T10:44:32.894Z,5.53
2022-10-17T10:47:15.664Z,11.27
2022-10-17T10:49:43.009Z,3.78
2022-10-17T10:52:16.106Z,3.45
2022-10-17T10:55:10.884Z,5.75
2022-10-17T11:00:25.842Z,10.52
2022-10-17T11:03:15.556Z,8.70
2022-10-17T11:05:46.629Z,7.40
2022-10-17T11:08:35.306Z,11.57
2022-10-17T11:11:28.251Z,6.35
2022-10-17T11:14:12.998Z,12.55
2022-10-17T11:16:56.945Z,5.47
2022-10-17T11:19:41.719Z,6.13
2022-10-17T11:22:29.136Z,8.52
2022-10-17T11:25:06.568Z,6.68
2022-10-17T11:27:34.268Z,10.75
2022-10-17T11:30:01.765Z,6.88
2022-10-17T11:32:39.166Z,9.48
2022-10-17T11:35:24.000Z,7.45
2022-10-17T11:37:55.767Z,8.43
2022-10-17T11:40:27.796Z,4.40
2022-10-17T11:43:00.582Z,7.32
2022-10-17T11:45:31.064Z,10.45
2022-10-17T11:48:03.229Z,7.18
2022-10-17T11:53:48.987Z,9.25
2022-10-17T11:56:20.471Z,8.55
2022-10-17T11:59:00.919Z,8.93
2022-10-17T12:01:59.017Z,7.82
2022-10-17T12:04:49.677Z,7.07
2022-10-17T12:07:28.582Z,10.15
2022-10-17T12:09:57.757Z,9.05
2022-10-17T12:12:30.035Z,9.65
2022-10-17T12:15:23.408Z,6.70
2022-10-17T12:18:03.796Z,5.65
2022-10-17T12:20:37.740Z,5.20
2022-10-17T12:23:13.411Z,3.47
2022-10-17T12:26:04.730Z,7.93
2022-10-17T12:28:37.737Z,7.28
2022-10-17T12:31:13.127Z,8.05
2022-10-17T12:34:00.375Z,6.47
2022-10-17T12:36:27.172Z,6.75
2022-10-17T12:39:02.858Z,8.02
2022-10-17T12:41:40.933Z,6.88
2022-10-17T12:44:13.855Z,6.35
2022-10-17T12:46:46.960Z,6.05
2022-10-17T12:49:35.972Z,4.65
2022-10-17T12:52:27.245Z,6.15
2022-10-17T12:55:07.421Z,9.65
2022-10-17T12:57:53.172Z,4.82
2022-10-17T13:00:39.068Z,4.93
2022-10-17T13:03:14.981Z,6.25
2022-10-17T13:05:52.885Z,9.45
2022-10-17T13:08:25.601Z,12.88
2022-10-17T13:10:53.931Z,3.47
2022-10-17T13:13:39.072Z,9.10
2022-10-17T13:16:05.775Z,5.97
2022-10-17T13:18:32.434Z,5.47
2022-10-17T13:21:29.047Z,7.75
2022-10-17T13:23:56.720Z,6.97
2022-10-17T13:26:25.545Z,10.65
2022-10-17T13:29:03.520Z,7.88
2022-10-17T13:31:38.782Z,10.98
2022-10-17T13:34:16.345Z,4.60
2022-10-17T13:36:48.536Z,10.30
2022-10-17T13:39:23.095Z,10.32
2022-10-17T13:41:59.343Z,5.97
2022-10-17T13:44:28.645Z,9.30
2022-10-17T13:46:58.477Z,7.85
2022-10-17T13:49:31.237Z,8.10
2022-10-17T13:51:59.804Z,9.93
2022-10-17T13:54:34.524Z,7.95
2022-10-17T13:57:02.185Z,7.75
2022-10-17T13:59:34.542Z,6.18
2022-10-17T14:02:02.030Z,6.10
2022-10-17T14:04:35.500Z,7.55
2022-10-17T14:08:05.748Z,11.95
2022-10-17T14:10:35.365Z,10.15
2022-10-17T14:13:04.361Z,9.75
2022-10-17T14:15:33.663Z,9.40
2022-10-17T14:18:07.754Z,6.03
2022-10-17T14:21:19.879Z,11.10
2022-10-17T14:23:33.365Z,12.52
2022-10-17T14:26:12.570Z,11.73
2022-10-17T14:28:41.228Z,13.95
2022-10-17T14:31:18.768Z,11.13
2022-10-17T14:33:50.601Z,9.90
2022-10-17T14:36:18.793Z,8.27
2022-10-17T14:38:48.306Z,8.52
2022-10-17T14:44:18.153Z,9.60
2022-10-17T14:46:50.431Z,6.95
2022-10-17T14:49:27.840Z,10.07
2022-10-17T14:52:31.409Z,8.38
2022-10-17T14:54:59.830Z,9.18
2022-10-17T14:57:43.879Z,11.40
2022-10-17T15:00:15.107Z,12.55
2022-10-17T15:02:43.734Z,6.10
2022-10-17T15:05:13.451Z,10.50
2022-10-17T15:07:41.980Z,5.75
2022-10-17T15:10:41.812Z,8.63
2022-10-17T15:13:31.109Z,11.25
2022-10-17T15:15:59.134Z,10.75
2022-10-17T15:18:25.887Z,9.98
2022-10-17T15:20:59.810Z,7.25
2022-10-17T15:23:33.330Z,6.63
2022-10-17T15:26:00.311Z,10.23
2022-10-17T15:28:27.491Z,7.32
2022-10-17T15:30:55.348Z,7.85
2022-10-17T15:33:22.299Z,7.57
2022-10-17T15:35:49.034Z,11.20
2022-10-17T15:38:17.244Z,9.50
2022-10-17T15:40:44.045Z,7.72
2022-10-17T15:43:10.684Z,7.55
2022-10-17T15:45:37.805Z,6.07
2022-10-17T15:48:06.678Z,12.15
2022-10-17T15:50:33.321Z,8.75
2022-10-17T15:53:00.193Z,11.68
2022-10-17T15:55:26.924Z,20.33
2022-10-17T15:57:53.727Z,12.48
2022-10-17T16:00:23.046Z,14.40
2022-10-17T16:02:50.765Z,10.45
2022-10-17T16:05:25.548Z,12.60
2022-10-17T16:07:53.482Z,11.55
2022-10-17T16:10:21.688Z,10.38
2022-10-17T16:12:49.962Z,14.73
2022-10-17T16:15:29.270Z,12.95
2022-10-17T16:17:57.052Z,14.48
2022-10-17T16:23:12.082Z,8.52
2022-10-17T16:25:40.255Z,12.20
2022-10-17T16:28:08.672Z,12.05
2022-10-17T16:30:42.549Z,11.77
2022-10-17T16:33:13.963Z,13.60
2022-10-17T16:35:41.641Z,10.65
2022-10-17T16:38:08.627Z,10.77
2022-10-17T16:40:38.342Z,12.95
2022-10-17T16:43:05.310Z,9.68
2022-10-17T16:45:32.151Z,18.02
2022-10-17T16:47:58.894Z,12.50
2022-10-17T16:50:25.703Z,12.07
2022-10-17T16:52:52.378Z,14.18
2022-10-17T16:55:19.213Z,16.10
2022-10-17T16:57:46.055Z,11.95
2022-10-17T17:00:14.604Z,15.88
2022-10-17T17:02:41.331Z,16.25
2022-10-17T17:05:08.534Z,10.93
2022-10-17T17:07:35.349Z,14.45
2022-10-17T17:10:03.296Z,12.15
2022-10-17T17:12:32.685Z,13.45
2022-10-17T17:15:00.324Z,11.35
2022-10-17T17:17:44.350Z,12.95
2022-10-17T17:20:14.209Z,16.10
2022-10-17T17:22:44.457Z,18.25
2022-10-17T17:25:13.444Z,19.00
2022-10-17T17:27:41.067Z,13.40
2022-10-17T17:30:09.126Z,18.20
2022-10-17T17:32:35.895Z,14.93
2022-10-17T17:35:02.645Z,17.35
2022-10-17T17:37:30.761Z,11.25
2022-10-17T17:39:57.657Z,14.68
2022-10-17T17:42:24.476Z,11.18
2022-10-17T17:44:52.146Z,11.18
2022-10-17T17:47:19.066Z,11.00
2022-10-17T17:49:45.946Z,15.50
2022-10-17T17:52:12.586Z,18.08
2022-10-17T17:54:40.993Z,16.60
2022-10-17T17:57:08.487Z,13.50
2022-10-17T17:59:36.379Z,17.42
2022-10-17T18:02:05.210Z,17.88
2022-10-17T18:04:31.869Z,15.73
2022-10-17T18:06:58.549Z,12.05
2022-10-17T18:09:25.189Z,12.02
2022-10-17T18:11:53.276Z,9.50
2022-10-17T18:14:23.782Z,17.92
2022-10-17T18:16:50.714Z,10.32
2022-10-17T18:19:17.795Z,13.05
2022-10-17T18:21:44.565Z,12.50
2022-10-17T18:24:11.396Z,9.68
2022-10-17T18:26:42.104Z,9.88
2022-10-17T18:29:09.067Z,12.13
2022-10-17T18:31:36.267Z,9.23
2022-10-17T18:34:04.561Z,12.98
2022-10-17T18:36:32.077Z,14.75
2022-10-17T18:38:59.850Z,7.95
2022-10-17T18:41:28.529Z,6.55
2022-10-17T18:46:42.999Z,7.75
2022-10-17T18:49:13.172Z,9.55
2022-10-17T18:51:42.440Z,7.75
2022-10-17T18:54:18.988Z,7.28
2022-10-17T18:56:46.433Z,12.60
2022-10-17T18:59:13.190Z,9.98
2022-10-17T19:01:40.117Z,6.95
2022-10-17T19:04:08.124Z,9.15
2022-10-17T19:06:36.232Z,9.38
2022-10-17T19:09:05.584Z,8.95
2022-10-17T19:11:33.502Z,8.07
2022-10-17T19:14:02.997Z,14.10
2022-10-17T19:16:36.658Z,12.68
2022-10-17T19:19:24.226Z,11.90
2022-10-17T19:21:51.292Z,10.38
2022-10-17T19:24:20.825Z,20.92
2022-10-17T19:26:50.262Z,10.30
2022-10-17T19:29:19.797Z,12.55
2022-10-17T19:31:47.933Z,11.50
2022-10-17T19:34:15.543Z,9.45
2022-10-17T19:36:42.711Z,11.68
2022-10-17T19:39:18.961Z,11.25
2022-10-17T19:41:47.585Z,11.45
2022-10-17T19:44:14.640Z,9.43
2022-10-17T19:46:41.521Z,8.50
2022-10-17T19:49:08.153Z,13.65
2022-10-17T19:51:34.811Z,11.70
2022-10-17T19:54:02.996Z,15.40
2022-10-17T19:56:32.281Z,11.93
2022-10-17T19:59:02.432Z,8.73
2022-10-17T20:01:33.302Z,10.52
2022-10-17T20:04:01.612Z,9.65
2022-10-17T20:06:28.450Z,11.80
2022-10-17T20:08:55.093Z,11.77
2022-10-17T20:11:23.926Z,9.60
2022-10-17T20:13:51.037Z,11.40
2022-10-17T20:16:23.539Z,14.90
2022-10-17T20:18:53.211Z,15.77
2022-10-17T20:21:25.016Z,9.15
2022-10-17T20:23:51.719Z,9.65
2022-10-17T20:29:17.030Z,11.95
2022-10-17T20:31:45.767Z,8.88
2022-10-17T20:34:15.286Z,9.30
2022-10-17T20:36:42.596Z,16.08
2022-10-17T20:39:11.449Z,15.23
2022-10-17T20:41:38.109Z,11.73
2022-10-17T20:44:07.099Z,12.32
2022-10-17T20:46:37.386Z,11.48
2022-10-17T20:49:06.277Z,11.32
2022-10-17T20:51:33.525Z,13.38
2022-10-17T20:54:00.345Z,14.95
2022-10-17T20:56:29.988Z,15.20
2022-10-17T20:59:00.336Z,14.52
2022-10-17T21:01:28.435Z,12.00
2022-10-17T21:03:58.267Z,14.30
2022-10-17T21:06:27.619Z,10.27
2022-10-17T21:08:55.638Z,11.73
2022-10-17T21:11:27.113Z,15.20
2022-10-17T21:14:03.269Z,10.18
2022-10-17T21:16:31.652Z,9.80
2022-10-17T21:18:58.506Z,8.05
2022-10-17T21:21:28.794Z,9.55
2022-10-17T21:23:58.126Z,9.32
2022-10-17T21:26:24.884Z,8.15
2022-10-17T21:28:51.508Z,6.78
2022-10-17T21:31:26.718Z,9.30
2022-10-17T21:33:56.325Z,9.10
2022-10-17T21:36:23.902Z,7.30
2022-10-17T21:38:52.316Z,8.13
2022-10-17T21:41:21.006Z,8.65
2022-10-17T21:43:50.509Z,9.98
2022-10-17T21:46:19.708Z,8.35
2022-10-17T21:48:47.353Z,7.82
2022-10-17T21:51:17.773Z,7.10
2022-10-17T21:53:44.659Z,10.02
2022-10-17T21:56:14.850Z,13.40
2022-10-17T21:58:41.759Z,11.82
2022-10-17T22:01:29.273Z,11.57
2022-10-17T22:03:58.204Z,11.23
2022-10-17T22:06:42.763Z,9.15
2022-10-17T22:09:18.768Z,13.55
2022-10-17T22:11:47.689Z,9.85
2022-10-17T22:14:17.361Z,18.67
2022-10-17T22:16:45.321Z,9.70
2022-10-17T22:19:13.292Z,13.43
2022-10-17T22:21:40.010Z,10.05
2022-10-17T22:24:08.822Z,10.18
2022-10-17T22:26:36.626Z,11.68
2022-10-17T22:29:05.005Z,8.60
2022-10-17T22:31:31.713Z,11.07
2022-10-17T22:33:58.377Z,10.52
2022-10-17T22:36:25.205Z,9.82
2022-10-17T22:38:52.870Z,14.60
2022-10-17T22:41:20.325Z,11.15
2022-10-17T22:43:47.008Z,11.75
2022-10-17T22:46:14.528Z,14.55
2022-10-17T22:48:41.579Z,10.07
2022-10-17T22:51:08.617Z,11.65
2022-10-17T22:53:37.263Z,13.30
2022-10-17T22:56:10.209Z,15.05
2022-10-17T22:58:38.728Z,11.88
2022-10-17T23:01:06.981Z,14.90
2022-10-17T23:03:34.438Z,12.05
2022-10-17T23:06:01.095Z,15.93
2022-10-17T23:08:27.776Z,11.10
2022-10-17T23:10:54.629Z,13.68
2022-10-17T23:13:21.946Z,10.88
2022-10-17T23:15:55.888Z,11.57
2022-10-17T23:18:24.227Z,11.90
2022-10-17T23:20:51.274Z,9.40
2022-10-17T23:23:18.702Z,12.82
2022-10-17T23:25:45.785Z,16.60
2022-10-17T23:28:12.747Z,9.70
2022-10-17T23:30:39.859Z,10.65
2022-10-17T23:33:06.952Z,11.60
2022-10-17T23:35:34.382Z,12.23
2022-10-17T23:38:01.024Z,12.93
2022-10-17T23:40:28.106Z,13.38
2022-10-17T23:42:54.730Z,12.65
2022-10-17T23:45:21.716Z,13.65
2022-10-17T23:47:48.469Z,12.85
2022-10-17T23:50:15.168Z,13.57
2022-10-17T23:52:41.923Z,11.43
2022-10-17T23:55:09.293Z,14.05
2022-10-17T23:57:35.949Z,14.95
